createdAt,value
2024-04-09T00:00:56.985Z,19.97
2024-04-09T00:01:56.963Z,19.97
2024-04-09T00:02:56.998Z,19.97
2024-04-09T00:03:57.100Z,19.96
2024-04-09T00:04:56.948Z,19.96
2024-04-09T00:05:56.957Z,19.95
2024-04-09T00:06:56.894Z,19.94
2024-04-09T00:07:56.883Z,19.94
2024-04-09T00:08:57.173Z,19.92
2024-04-09T00:09:56.871Z,19.91
2024-04-09T00:10:56.842Z,19.90
2024-04-09T00:11:56.926Z,19.89
2024-04-09T00:12:56.845Z,19.89
2024-04-09T00:13:56.805Z,19.88
2024-04-09T00:14:56.858Z,19.89
2024-04-09T00:15:56.816Z,19.89
2024-04-09T00:16:56.999Z,19.89
2024-04-09T00:17:56.983Z,19.89
2024-04-09T00:18:56.925Z,19.89
2024-04-09T00:19:56.747Z,19.88
2024-04-09T00:20:56.756Z,19.87
2024-04-09T00:21:56.709Z,19.86
2024-04-09T00:22:56.691Z,19.84
2024-04-09T00:23:56.682Z,19.84
2024-04-09T00:24:56.703Z,19.84
2024-04-09T00:25:56.641Z,19.84
2024-04-09T00:26:56.706Z,19.85
2024-04-09T00:27:56.647Z,19.86
2024-04-09T00:28:56.610Z,19.87
2024-04-09T00:29:56.606Z,19.88
2024-04-09T00:30:56.583Z,19.88
2024-04-09T00:31:56.591Z,19.88
2024-04-09T00:32:56.687Z,19.88
2024-04-09T00:33:56.980Z,19.87
2024-04-09T00:34:56.566Z,19.86
2024-04-09T00:35:56.545Z,19.86
2024-04-09T00:36:56.496Z,19.85
2024-04-09T00:37:56.529Z,19.85
2024-04-09T00:38:56.556Z,19.84
2024-04-09T00:39:56.541Z,19.84
2024-04-09T00:40:56.461Z,19.84
2024-04-09T00:41:56.464Z,19.84
2024-04-09T00:42:56.402Z,19.83
2024-04-09T00:43:56.403Z,19.81
2024-04-09T00:44:56.415Z,19.80
2024-04-09T00:45:56.382Z,19.78
2024-04-09T00:46:56.351Z,19.77
2024-04-09T00:47:56.507Z,19.76
2024-04-09T00:48:56.389Z,19.75
2024-04-09T00:49:56.326Z,19.75
2024-04-09T00:50:56.336Z,19.75
2024-04-09T00:51:56.289Z,19.75
2024-04-09T00:52:56.294Z,19.74
2024-04-09T00:53:56.334Z,19.74
2024-04-09T00:54:56.272Z,19.73
2024-04-09T00:55:56.276Z,19.72
2024-04-09T00:56:56.317Z,19.71
2024-04-09T00:57:56.242Z,19.71
2024-04-09T00:58:56.264Z,19.71
2024-04-09T00:59:56.629Z,19.71
2024-04-09T01:00:56.283Z,19.71
2024-04-09T01:01:56.918Z,19.72
2024-04-09T01:02:56.275Z,19.72
2024-04-09T01:03:56.279Z,19.72
2024-04-09T01:04:56.211Z,19.71
2024-04-09T01:05:56.172Z,19.70
2024-04-09T01:06:56.117Z,19.69
2024-04-09T01:07:56.078Z,19.67
2024-04-09T01:08:56.115Z,19.64
2024-04-09T01:09:56.063Z,19.61
2024-04-09T01:10:56.084Z,19.59
2024-04-09T01:11:56.062Z,19.56
2024-04-09T01:12:56.019Z,19.52
2024-04-09T01:13:56.032Z,19.49
2024-04-09T01:14:55.991Z,19.47
2024-04-09T01:15:55.973Z,19.45
2024-04-09T01:16:56.019Z,19.43
2024-04-09T01:17:56.019Z,19.41
2024-04-09T01:18:56.045Z,19.40
2024-04-09T01:19:55.931Z,19.38
2024-04-09T01:20:55.970Z,19.36
2024-04-09T01:21:55.896Z,19.35
2024-04-09T01:22:55.880Z,19.34
2024-04-09T01:23:55.966Z,19.33
2024-04-09T01:24:55.870Z,19.33
2024-04-09T01:25:55.858Z,19.33
2024-04-09T01:26:55.900Z,19.33
2024-04-09T01:27:55.861Z,19.32
2024-04-09T01:28:55.823Z,19.32
2024-04-09T01:29:55.820Z,19.32
2024-04-09T01:30:55.780Z,19.32
2024-04-09T01:31:55.788Z,19.31
2024-04-09T01:32:55.896Z,19.30
2024-04-09T01:33:55.992Z,19.28
2024-04-09T01:34:55.714Z,19.25
2024-04-09T01:35:55.749Z,19.23
2024-04-09T01:36:55.698Z,19.22
2024-04-09T01:37:55.676Z,19.21
2024-04-09T01:38:55.748Z,19.21
2024-04-09T01:39:55.686Z,19.21
2024-04-09T01:40:55.653Z,19.21
2024-04-09T01:41:55.655Z,19.21
2024-04-09T01:42:55.613Z,19.21
2024-04-09T01:43:55.598Z,19.21
2024-04-09T01:44:55.647Z,19.21
2024-04-09T01:45:55.619Z,19.21
2024-04-09T01:46:55.608Z,19.20
2024-04-09T01:47:55.729Z,19.19
2024-04-09T01:48:55.629Z,19.17
2024-04-09T01:49:55.568Z,19.15
2024-04-09T01:50:55.571Z,19.13
2024-04-09T01:51:55.503Z,19.12
2024-04-09T01:52:55.519Z,19.11
2024-04-09T01:53:55.510Z,19.10
2024-04-09T01:54:55.502Z,19.10
2024-04-09T01:55:55.456Z,19.09
2024-04-09T01:56:55.472Z,19.09
2024-04-09T01:57:55.432Z,19.09
2024-04-09T01:58:55.414Z,19.09
2024-04-09T01:59:55.443Z,19.08
2024-04-09T02:00:55.476Z,19.08
2024-04-09T02:01:55.395Z,19.09
2024-04-09T02:02:55.430Z,19.09
2024-04-09T02:03:55.510Z,19.10
2024-04-09T02:04:55.461Z,19.11
2024-04-09T02:05:55.360Z,19.12
2024-04-09T02:06:55.354Z,19.13
2024-04-09T02:07:55.368Z,19.14
2024-04-09T02:08:55.367Z,19.14
2024-04-09T02:09:55.280Z,19.15
2024-04-09T02:10:55.282Z,19.15
2024-04-09T02:11:55.332Z,19.14
2024-04-09T02:12:55.255Z,19.12
2024-04-09T02:13:55.259Z,19.10
2024-04-09T02:14:55.254Z,19.08
2024-04-09T02:15:55.221Z,19.06
2024-04-09T02:16:55.217Z,19.04
2024-04-09T02:17:55.328Z,19.01
2024-04-09T02:18:55.267Z,18.99
2024-04-09T02:19:55.200Z,18.96
2024-04-09T02:20:55.143Z,18.94
2024-04-09T02:21:55.141Z,18.92
2024-04-09T02:22:55.099Z,18.90
2024-04-09T02:23:55.155Z,18.88
2024-04-09T02:24:55.092Z,18.86
2024-04-09T02:25:55.052Z,18.86
2024-04-09T02:26:55.155Z,18.84
2024-04-09T02:27:55.061Z,18.83
2024-04-09T02:28:55.026Z,18.82
2024-04-09T02:29:55.096Z,18.81
2024-04-09T02:30:55.013Z,18.80
2024-04-09T02:31:55.061Z,18.80
2024-04-09T02:32:55.045Z,18.79
2024-04-09T02:33:55.112Z,18.78
2024-04-09T02:34:54.955Z,18.78
2024-04-09T02:35:54.963Z,18.77
2024-04-09T02:36:54.965Z,18.77
2024-04-09T02:37:54.904Z,18.77
2024-04-09T02:38:54.961Z,18.78
2024-04-09T02:39:54.871Z,18.78
2024-04-09T02:40:54.876Z,18.79
2024-04-09T02:41:54.880Z,18.78
2024-04-09T02:42:54.859Z,18.78
2024-04-09T02:43:54.826Z,18.77
2024-04-09T02:44:54.899Z,18.77
2024-04-09T02:45:54.804Z,18.77
2024-04-09T02:46:54.806Z,18.76
2024-04-09T02:47:54.920Z,18.76
2024-04-09T02:48:54.834Z,18.76
2024-04-09T02:49:54.799Z,18.76
2024-04-09T02:50:54.777Z,18.77
2024-04-09T02:51:54.732Z,18.77
2024-04-09T02:52:54.723Z,18.78
2024-04-09T02:53:54.837Z,18.78
2024-04-09T02:54:54.683Z,18.79
2024-04-09T02:55:54.713Z,18.80
2024-04-09T02:56:54.693Z,18.81
2024-04-09T02:57:54.655Z,18.82
2024-04-09T02:58:54.653Z,18.81
2024-04-09T02:59:54.730Z,18.80
2024-04-09T03:00:54.685Z,18.78
2024-04-09T03:01:54.771Z,18.78
2024-04-09T03:02:54.804Z,18.78
2024-04-09T03:03:54.640Z,18.78
2024-04-09T03:04:54.584Z,18.78
2024-04-09T03:05:54.596Z,18.78
2024-04-09T03:06:54.535Z,18.79
2024-04-09T03:07:54.519Z,18.79
2024-04-09T03:08:54.578Z,18.80
2024-04-09T03:09:54.539Z,18.80
2024-04-09T03:10:54.557Z,18.80
2024-04-09T03:11:54.477Z,18.80
2024-04-09T03:12:54.500Z,18.79
2024-04-09T03:13:54.432Z,18.79
2024-04-09T03:14:54.449Z,18.80
2024-04-09T03:15:54.478Z,18.80
2024-04-09T03:16:54.480Z,18.80
2024-04-09T03:17:54.469Z,18.80
2024-04-09T03:18:54.426Z,18.80
2024-04-09T03:19:54.379Z,18.81
2024-04-09T03:20:54.380Z,18.81
2024-04-09T03:21:54.327Z,18.82
2024-04-09T03:22:54.326Z,18.83
2024-04-09T03:23:55.215Z,18.85
2024-04-09T03:24:54.330Z,18.86
2024-04-09T03:25:54.274Z,18.87
2024-04-09T03:26:54.292Z,18.89
2024-04-09T03:27:54.262Z,18.90
2024-04-09T03:28:54.251Z,18.92
2024-04-09T03:29:54.235Z,18.93
2024-04-09T03:30:54.239Z,18.94
2024-04-09T03:31:54.205Z,18.95
2024-04-09T03:32:54.340Z,18.95
2024-04-09T03:33:54.704Z,18.96
2024-04-09T03:34:54.184Z,18.96
2024-04-09T03:35:54.155Z,18.96
2024-04-09T03:36:54.148Z,18.97
2024-04-09T03:37:54.156Z,18.98
2024-04-09T03:38:54.177Z,18.99
2024-04-09T03:39:54.097Z,19.00
2024-04-09T03:40:54.148Z,19.01
2024-04-09T03:41:54.090Z,19.02
2024-04-09T03:42:54.072Z,19.03
2024-04-09T03:43:54.045Z,19.04
2024-04-09T03:44:54.044Z,19.04
2024-04-09T03:45:54.041Z,19.04
2024-04-09T03:46:54.006Z,19.04
2024-04-09T03:47:54.082Z,19.04
2024-04-09T03:48:54.342Z,19.04
2024-04-09T03:49:53.968Z,19.04
2024-04-09T03:50:53.959Z,19.05
2024-04-09T03:51:53.953Z,19.05
2024-04-09T03:52:53.938Z,19.05
2024-04-09T03:53:53.937Z,19.05
2024-04-09T03:54:53.915Z,19.05
2024-04-09T03:55:53.950Z,19.04
2024-04-09T03:56:53.880Z,19.04
2024-04-09T03:57:53.876Z,19.04
2024-04-09T03:58:53.904Z,19.04
2024-04-09T03:59:53.863Z,19.04
2024-04-09T04:00:53.937Z,19.05
2024-04-09T04:01:53.915Z,19.05
2024-04-09T04:02:53.840Z,19.05
2024-04-09T04:03:53.884Z,19.04
2024-04-09T04:04:53.777Z,19.04
2024-04-09T04:05:53.764Z,19.04
2024-04-09T04:06:53.776Z,19.04
2024-04-09T04:07:53.787Z,19.04
2024-04-09T04:08:53.732Z,19.04
2024-04-09T04:09:53.719Z,19.04
2024-04-09T04:10:53.750Z,19.05
2024-04-09T04:11:53.686Z,19.05
2024-04-09T04:12:53.670Z,19.05
2024-04-09T04:13:53.711Z,19.05
2024-04-09T04:14:53.642Z,19.05
2024-04-09T04:15:53.631Z,19.04
2024-04-09T04:16:53.645Z,19.03
2024-04-09T04:17:53.643Z,19.02
2024-04-09T04:18:53.640Z,19.02
2024-04-09T04:19:53.600Z,19.01
2024-04-09T04:20:53.597Z,19.01
2024-04-09T04:21:53.665Z,19.01
2024-04-09T04:22:53.563Z,19.00
2024-04-09T04:23:53.596Z,19.00
2024-04-09T04:24:53.523Z,19.00
2024-04-09T04:25:53.490Z,19.01
2024-04-09T04:26:53.533Z,19.01
2024-04-09T04:27:53.482Z,19.01
2024-04-09T04:28:53.485Z,19.01
2024-04-09T04:29:53.476Z,19.01
2024-04-09T04:30:53.448Z,19.01
2024-04-09T04:31:53.458Z,19.00
2024-04-09T04:32:53.527Z,19.00
2024-04-09T04:33:53.714Z,19.01
2024-04-09T04:34:53.396Z,19.00
2024-04-09T04:35:53.381Z,19.00
2024-04-09T04:36:53.398Z,19.00
2024-04-09T04:37:53.373Z,18.99
2024-04-09T04:38:53.420Z,18.98
2024-04-09T04:39:53.351Z,18.98
2024-04-09T04:40:53.361Z,18.97
2024-04-09T04:41:53.315Z,18.98
2024-04-09T04:42:53.283Z,18.98
2024-04-09T04:43:53.300Z,18.98
2024-04-09T04:44:53.262Z,18.98
2024-04-09T04:45:53.242Z,18.97
2024-04-09T04:46:54.027Z,18.97
2024-04-09T04:47:53.335Z,18.96
2024-04-09T04:48:53.465Z,18.96
2024-04-09T04:49:53.288Z,18.95
2024-04-09T04:50:53.175Z,18.95
2024-04-09T04:51:53.191Z,18.94
2024-04-09T04:52:53.210Z,18.95
2024-04-09T04:53:53.168Z,18.95
2024-04-09T04:54:53.129Z,18.95
2024-04-09T04:55:53.116Z,18.95
2024-04-09T04:56:53.146Z,18.94
2024-04-09T04:57:53.115Z,18.94
2024-04-09T04:58:53.081Z,18.94
2024-04-09T04:59:53.170Z,18.94
2024-04-09T05:00:53.137Z,18.93
2024-04-09T05:01:53.030Z,18.93
2024-04-09T05:02:53.123Z,18.93
2024-04-09T05:03:53.070Z,18.92
2024-04-09T05:04:52.997Z,18.91
2024-04-09T05:05:53.009Z,18.91
2024-04-09T05:06:52.982Z,18.90
2024-04-09T05:07:53.427Z,18.89
2024-04-09T05:08:52.968Z,18.89
2024-04-09T05:09:52.938Z,18.88
2024-04-09T05:10:52.959Z,18.88
2024-04-09T05:11:52.925Z,18.87
2024-04-09T05:12:52.909Z,18.85
2024-04-09T05:13:52.952Z,18.84
2024-04-09T05:14:52.887Z,18.83
2024-04-09T05:15:53.002Z,18.83
2024-04-09T05:16:52.861Z,18.82
2024-04-09T05:17:52.959Z,18.83
2024-04-09T05:18:53.032Z,18.83
2024-04-09T05:19:52.839Z,18.84
2024-04-09T05:20:52.818Z,18.85
2024-04-09T05:21:52.792Z,18.86
2024-04-09T05:22:52.781Z,18.87
2024-04-09T05:23:52.737Z,18.88
2024-04-09T05:24:52.761Z,18.89
2024-04-09T05:25:52.746Z,18.90
2024-04-09T05:26:52.713Z,18.91
2024-04-09T05:27:52.712Z,18.92
2024-04-09T05:28:52.694Z,18.93
2024-04-09T05:29:52.731Z,18.94
2024-04-09T05:30:52.761Z,18.95
2024-04-09T05:31:52.685Z,18.96
2024-04-09T05:32:52.761Z,18.98
2024-04-09T05:33:52.661Z,18.99
2024-04-09T05:34:52.592Z,19.00
2024-04-09T05:35:52.586Z,19.01
2024-04-09T05:36:53.508Z,19.03
2024-04-09T05:37:52.588Z,19.04
2024-04-09T05:38:52.603Z,19.05
2024-04-09T05:39:52.552Z,19.06
2024-04-09T05:40:52.533Z,19.07
2024-04-09T05:41:52.535Z,19.08
2024-04-09T05:42:52.643Z,19.09
2024-04-09T05:43:52.511Z,19.10
2024-04-09T05:44:52.502Z,19.11
2024-04-09T05:45:52.600Z,19.12
2024-04-09T05:46:52.495Z,19.13
2024-04-09T05:47:52.497Z,19.14
2024-04-09T05:48:52.589Z,19.15
2024-04-09T05:49:52.459Z,19.16
2024-04-09T05:50:52.398Z,19.17
2024-04-09T05:51:52.408Z,19.18
2024-04-09T05:52:52.371Z,19.20
2024-04-09T05:53:52.370Z,19.21
2024-04-09T05:54:52.398Z,19.22
2024-04-09T05:55:52.333Z,19.23
2024-04-09T05:56:52.372Z,19.24
2024-04-09T05:57:52.337Z,19.25
2024-04-09T05:58:52.318Z,19.26
2024-04-09T05:59:52.310Z,19.27
2024-04-09T06:00:52.322Z,19.28
2024-04-09T06:01:52.416Z,19.29
2024-04-09T06:02:52.313Z,19.30
2024-04-09T06:03:52.332Z,19.31
2024-04-09T06:04:52.223Z,19.32
2024-04-09T06:05:52.232Z,19.33
2024-04-09T06:06:52.205Z,19.34
2024-04-09T06:07:52.203Z,19.34
2024-04-09T06:08:52.359Z,19.35
2024-04-09T06:09:52.181Z,19.36
2024-04-09T06:10:52.162Z,19.37
2024-04-09T06:11:52.208Z,19.39
2024-04-09T06:12:52.122Z,19.40
2024-04-09T06:13:52.120Z,19.41
2024-04-09T06:14:52.126Z,19.42
2024-04-09T06:15:52.107Z,19.43
2024-04-09T06:16:52.735Z,19.44
2024-04-09T06:17:52.152Z,19.45
2024-04-09T06:18:52.162Z,19.46
2024-04-09T06:19:52.123Z,19.47
2024-04-09T06:20:52.032Z,19.49
2024-04-09T06:21:51.997Z,19.51
2024-04-09T06:22:51.997Z,19.53
2024-04-09T06:23:51.993Z,19.56
2024-04-09T06:24:51.969Z,19.58
2024-04-09T06:25:51.959Z,19.60
2024-04-09T06:26:51.957Z,19.62
2024-04-09T06:27:51.948Z,19.64
2024-04-09T06:28:51.921Z,19.66
2024-04-09T06:29:51.890Z,19.67
2024-04-09T06:30:51.976Z,19.69
2024-04-09T06:31:51.959Z,19.70
2024-04-09T06:32:52.101Z,19.72
2024-04-09T06:33:51.905Z,19.73
2024-04-09T06:34:51.854Z,19.74
2024-04-09T06:35:51.845Z,19.75
2024-04-09T06:36:51.932Z,19.76
2024-04-09T06:37:51.849Z,19.76
2024-04-09T06:38:51.772Z,19.76
2024-04-09T06:39:51.926Z,19.76
2024-04-09T06:40:51.778Z,19.76
2024-04-09T06:41:51.750Z,19.76
2024-04-09T06:42:51.732Z,19.76
2024-04-09T06:43:51.718Z,19.75
2024-04-09T06:44:51.718Z,19.75
2024-04-09T06:45:51.724Z,19.75
2024-04-09T06:46:51.706Z,19.75
2024-04-09T06:47:51.772Z,19.75
2024-04-09T06:48:51.819Z,19.74
2024-04-09T06:49:51.747Z,19.73
2024-04-09T06:50:51.651Z,19.72
2024-04-09T06:51:51.635Z,19.71
2024-04-09T06:52:51.678Z,19.70
2024-04-09T06:53:52.414Z,19.69
2024-04-09T06:54:51.753Z,19.68
2024-04-09T06:55:51.569Z,19.68
2024-04-09T06:56:51.574Z,19.66
2024-04-09T06:57:51.542Z,19.65
2024-04-09T06:58:51.674Z,19.64
2024-04-09T06:59:51.521Z,19.62
2024-04-09T07:00:51.570Z,19.61
2024-04-09T07:01:51.577Z,19.60
2024-04-09T07:02:51.490Z,19.60
2024-04-09T07:03:51.549Z,19.59
2024-04-09T07:04:51.492Z,19.58
2024-04-09T07:05:51.467Z,19.57
2024-04-09T07:06:51.474Z,19.56
2024-04-09T07:07:51.412Z,19.55
2024-04-09T07:08:51.393Z,19.55
2024-04-09T07:09:51.428Z,19.54
2024-04-09T07:10:51.361Z,19.53
2024-04-09T07:11:51.391Z,19.52
2024-04-09T07:12:51.362Z,19.51
2024-04-09T07:13:51.335Z,19.50
2024-04-09T07:14:51.337Z,19.49
2024-04-09T07:15:51.348Z,19.48
2024-04-09T07:16:51.354Z,19.47
2024-04-09T07:17:51.350Z,19.47
2024-04-09T07:18:51.340Z,19.47
2024-04-09T07:19:51.256Z,19.47
2024-04-09T07:20:51.273Z,19.47
2024-04-09T07:21:51.301Z,19.47
2024-04-09T07:22:51.205Z,19.47
2024-04-09T07:23:51.219Z,19.48
2024-04-09T07:24:51.217Z,19.48
2024-04-09T07:25:51.199Z,19.48
2024-04-09T07:26:51.169Z,19.48
2024-04-09T07:27:51.225Z,19.48
2024-04-09T07:28:51.138Z,19.48
2024-04-09T07:29:51.179Z,19.48
2024-04-09T07:30:51.180Z,19.48
2024-04-09T07:31:51.139Z,19.48
2024-04-09T07:32:51.151Z,19.48
2024-04-09T07:33:51.173Z,19.48
2024-04-09T07:34:51.118Z,19.48
2024-04-09T07:35:51.085Z,19.48
2024-04-09T07:36:51.169Z,19.48
2024-04-09T07:37:51.049Z,19.48
2024-04-09T07:38:51.040Z,19.48
2024-04-09T07:39:51.088Z,19.48
2024-04-09T07:40:50.982Z,19.47
2024-04-09T07:41:50.966Z,19.47
2024-04-09T07:42:51.019Z,19.47
2024-04-09T07:43:50.981Z,19.46
2024-04-09T07:44:50.943Z,19.46
2024-04-09T07:45:50.920Z,19.45
2024-04-09T07:46:50.910Z,19.45
2024-04-09T07:47:51.198Z,19.45
2024-04-09T07:48:51.166Z,19.44
2024-04-09T07:49:52.375Z,19.44
2024-04-09T07:50:50.867Z,19.44
2024-04-09T07:51:50.936Z,19.44
2024-04-09T07:52:50.827Z,19.44
2024-04-09T07:53:50.818Z,19.44
2024-04-09T07:54:51.023Z,19.44
2024-04-09T07:55:50.810Z,19.44
2024-04-09T07:56:50.822Z,19.44
2024-04-09T07:57:50.860Z,19.44
2024-04-09T07:58:50.761Z,19.44
2024-04-09T07:59:50.737Z,19.44
2024-04-09T08:00:50.868Z,19.45
2024-04-09T08:01:50.743Z,19.45
2024-04-09T08:02:50.728Z,19.46
2024-04-09T08:03:50.964Z,19.47
2024-04-09T08:04:50.907Z,19.48
2024-04-09T08:05:50.729Z,19.48
2024-04-09T08:06:50.926Z,19.49
2024-04-09T08:07:50.793Z,19.50
2024-04-09T08:08:50.879Z,19.51
2024-04-09T08:09:50.653Z,19.51
2024-04-09T08:10:50.616Z,19.52
2024-04-09T08:11:50.740Z,19.52
2024-04-09T08:12:50.662Z,19.52
2024-04-09T08:13:50.582Z,19.52
2024-04-09T08:14:50.536Z,19.53
2024-04-09T08:15:50.604Z,19.53
2024-04-09T08:16:50.511Z,19.53
2024-04-09T08:17:50.591Z,19.53
2024-04-09T08:18:50.791Z,19.53
2024-04-09T08:19:50.571Z,19.54
2024-04-09T08:20:50.473Z,19.54
2024-04-09T08:21:50.505Z,19.55
2024-04-09T08:22:50.500Z,19.55
2024-04-09T08:23:50.425Z,19.55
2024-04-09T08:24:50.426Z,19.56
2024-04-09T08:25:50.455Z,19.56
2024-04-09T08:26:50.401Z,19.57
2024-04-09T08:27:50.400Z,19.56
2024-04-09T08:28:50.353Z,19.56
2024-04-09T08:29:50.349Z,19.56
2024-04-09T08:30:50.512Z,19.56
2024-04-09T08:31:50.359Z,19.55
2024-04-09T08:32:50.390Z,19.55
2024-04-09T08:33:50.437Z,19.55
2024-04-09T08:34:50.505Z,19.54
2024-04-09T08:35:50.540Z,19.53
2024-04-09T08:36:50.310Z,19.53
2024-04-09T08:37:50.338Z,19.52
2024-04-09T08:38:50.296Z,19.52
2024-04-09T08:39:50.284Z,19.52
2024-04-09T08:40:50.406Z,19.52
2024-04-09T08:41:50.217Z,19.52
2024-04-09T08:42:50.236Z,19.53
2024-04-09T08:43:50.184Z,19.53
2024-04-09T08:44:50.368Z,19.54
2024-04-09T08:45:50.316Z,19.55
2024-04-09T08:46:50.136Z,19.56
2024-04-09T08:47:50.512Z,19.57
2024-04-09T08:48:50.521Z,19.58
2024-04-09T08:49:51.499Z,19.59
2024-04-09T08:50:52.554Z,19.59
2024-04-09T08:51:51.437Z,19.59
2024-04-09T08:52:50.235Z,19.58
2024-04-09T08:53:50.826Z,19.57
2024-04-09T08:54:50.578Z,19.56
2024-04-09T08:55:50.202Z,19.55
2024-04-09T08:56:50.109Z,19.54
2024-04-09T08:57:50.582Z,19.53
2024-04-09T08:58:50.045Z,19.53
2024-04-09T08:59:51.551Z,19.53
2024-04-09T09:00:50.254Z,19.52
2024-04-09T09:01:50.195Z,19.52
2024-04-09T09:02:50.072Z,19.52
2024-04-09T09:03:50.060Z,19.51
2024-04-09T09:04:50.137Z,19.51
2024-04-09T09:05:50.132Z,19.51
2024-04-09T09:06:50.023Z,19.51
2024-04-09T09:07:49.934Z,19.51
2024-04-09T09:08:50.131Z,19.51
2024-04-09T09:09:49.956Z,19.50
2024-04-09T09:10:50.233Z,19.50
2024-04-09T09:11:49.999Z,19.49
2024-04-09T09:12:49.937Z,19.48
2024-04-09T09:13:49.907Z,19.48
2024-04-09T09:14:50.075Z,19.46
2024-04-09T09:15:49.948Z,19.45
2024-04-09T09:16:50.039Z,19.45
2024-04-09T09:17:49.816Z,19.44
2024-04-09T09:18:49.789Z,19.44
2024-04-09T09:19:49.735Z,19.44
2024-04-09T09:20:50.048Z,19.43
2024-04-09T09:21:49.849Z,19.42
2024-04-09T09:22:49.742Z,19.40
2024-04-09T09:23:49.693Z,19.38
2024-04-09T09:24:49.699Z,19.37
2024-04-09T09:25:49.666Z,19.36
2024-04-09T09:26:49.844Z,19.36
2024-04-09T09:27:49.741Z,19.36
2024-04-09T09:28:49.622Z,19.36
2024-04-09T09:29:50.809Z,19.37
2024-04-09T09:30:49.908Z,19.38
2024-04-09T09:31:49.662Z,19.39
2024-04-09T09:32:49.662Z,19.40
2024-04-09T09:33:49.663Z,19.41
2024-04-09T09:34:49.537Z,19.42
2024-04-09T09:35:49.563Z,19.43
2024-04-09T09:36:49.519Z,19.44
2024-04-09T09:37:49.493Z,19.45
2024-04-09T09:38:49.493Z,19.45
2024-04-09T09:39:49.629Z,19.45
2024-04-09T09:40:49.561Z,19.44
2024-04-09T09:41:49.469Z,19.43
2024-04-09T09:42:49.506Z,19.42
2024-04-09T09:43:49.517Z,19.41
2024-04-09T09:44:49.406Z,19.40
2024-04-09T09:45:49.528Z,19.38
2024-04-09T09:46:49.521Z,19.38
2024-04-09T09:47:49.750Z,19.37
2024-04-09T09:48:49.398Z,19.36
2024-04-09T09:49:54.482Z,19.36
2024-04-09T09:50:49.376Z,19.36
2024-04-09T09:51:49.479Z,19.35
2024-04-09T09:52:49.647Z,19.35
2024-04-09T09:53:49.546Z,19.35
2024-04-09T09:54:49.436Z,19.35
2024-04-09T09:55:49.279Z,19.35
2024-04-09T09:56:49.330Z,19.36
2024-04-09T09:57:49.501Z,19.36
2024-04-09T09:58:49.264Z,19.36
2024-04-09T09:59:49.277Z,19.36
2024-04-09T10:00:49.380Z,19.36
2024-04-09T10:01:49.201Z,19.37
2024-04-09T10:02:50.913Z,19.37
2024-04-09T10:03:49.250Z,19.36
2024-04-09T10:04:49.309Z,19.36
2024-04-09T10:05:49.116Z,19.35
2024-04-09T10:06:49.217Z,19.34
2024-04-09T10:07:49.107Z,19.33
2024-04-09T10:08:49.093Z,19.33
2024-04-09T10:09:49.101Z,19.32
2024-04-09T10:10:49.051Z,19.32
2024-04-09T10:11:49.061Z,19.31
2024-04-09T10:12:49.124Z,19.31
2024-04-09T10:13:48.994Z,19.31
2024-04-09T10:14:49.003Z,19.30
2024-04-09T10:15:49.108Z,19.30
2024-04-09T10:16:48.962Z,19.29
2024-04-09T10:17:52.551Z,19.29
2024-04-09T10:18:49.058Z,19.29
2024-04-09T10:19:49.818Z,19.29
2024-04-09T10:20:48.954Z,19.30
2024-04-09T10:21:48.949Z,19.31
2024-04-09T10:22:48.916Z,19.33
2024-04-09T10:23:56.041Z,19.34
2024-04-09T10:24:48.983Z,19.36
2024-04-09T10:25:48.875Z,19.37
2024-04-09T10:26:48.850Z,19.39
2024-04-09T10:27:48.887Z,19.41
2024-04-09T10:28:48.799Z,19.43
2024-04-09T10:29:48.779Z,19.44
2024-04-09T10:30:48.916Z,19.44
2024-04-09T10:31:48.789Z,19.45
2024-04-09T10:32:48.809Z,19.46
2024-04-09T10:33:48.901Z,19.47
2024-04-09T10:34:48.770Z,19.48
2024-04-09T10:35:48.719Z,19.49
2024-04-09T10:36:48.779Z,19.50
2024-04-09T10:37:48.675Z,19.50
2024-04-09T10:38:48.705Z,19.51
2024-04-09T10:39:48.770Z,19.52
2024-04-09T10:40:48.668Z,19.53
2024-04-09T10:41:48.620Z,19.53
2024-04-09T10:42:48.737Z,19.54
2024-04-09T10:43:48.605Z,19.54
2024-04-09T10:44:48.587Z,19.54
2024-04-09T10:45:59.509Z,19.53
2024-04-09T10:46:48.598Z,19.52
2024-04-09T10:47:48.635Z,19.51
2024-04-09T10:48:48.611Z,19.50
2024-04-09T10:49:48.537Z,19.50
2024-04-09T10:50:48.538Z,19.50
2024-04-09T10:51:48.504Z,19.51
2024-04-09T10:52:48.494Z,19.52
2024-04-09T10:53:48.489Z,19.53
2024-04-09T10:54:48.512Z,19.55
2024-04-09T10:55:48.455Z,19.56
2024-04-09T10:56:48.422Z,19.58
2024-04-09T10:57:48.522Z,19.59
2024-04-09T10:58:48.413Z,19.60
2024-04-09T10:59:48.436Z,19.61
2024-04-09T11:00:48.538Z,19.62
2024-04-09T11:01:48.471Z,19.62
2024-04-09T11:02:48.448Z,19.62
2024-04-09T11:03:48.527Z,19.62
2024-04-09T11:04:48.486Z,19.63
2024-04-09T11:05:48.305Z,19.63
2024-04-09T11:06:48.382Z,19.64
2024-04-09T11:07:48.299Z,19.65
2024-04-09T11:08:48.323Z,19.66
2024-04-09T11:09:48.520Z,19.67
2024-04-09T11:10:48.331Z,19.68
2024-04-09T11:11:48.288Z,19.69
2024-04-09T11:12:48.283Z,19.70
2024-04-09T11:13:48.198Z,19.72
2024-04-09T11:14:48.196Z,19.73
2024-04-09T11:15:48.241Z,19.74
2024-04-09T11:16:48.176Z,19.75
2024-04-09T11:17:48.197Z,19.76
2024-04-09T11:18:48.222Z,19.77
2024-04-09T11:19:50.736Z,19.78
2024-04-09T11:20:48.119Z,19.79
2024-04-09T11:21:48.215Z,19.80
2024-04-09T11:22:48.108Z,19.81
2024-04-09T11:23:48.076Z,19.83
2024-04-09T11:24:48.108Z,19.84
2024-04-09T11:25:48.037Z,19.85
2024-04-09T11:26:48.032Z,19.86
2024-04-09T11:27:48.057Z,19.88
2024-04-09T11:28:48.022Z,19.89
2024-04-09T11:29:47.989Z,19.91
2024-04-09T11:30:48.063Z,19.93
2024-04-09T11:31:47.949Z,19.94
2024-04-09T11:32:48.083Z,19.95
2024-04-09T11:33:48.065Z,19.97
2024-04-09T11:34:48.039Z,19.99
2024-04-09T11:35:47.909Z,20.02
2024-04-09T11:36:47.957Z,20.05
2024-04-09T11:37:47.889Z,20.09
2024-04-09T11:38:47.887Z,20.13
2024-04-09T11:39:48.027Z,20.15
2024-04-09T11:40:47.883Z,20.18
2024-04-09T11:41:47.821Z,20.19
2024-04-09T11:42:47.866Z,20.20
2024-04-09T11:43:47.833Z,20.20
2024-04-09T11:44:47.817Z,20.20
2024-04-09T11:45:47.859Z,20.20
2024-04-09T11:46:47.842Z,20.19
2024-04-09T11:47:47.963Z,20.19
2024-04-09T11:48:47.882Z,20.19
2024-04-09T11:49:47.741Z,20.19
2024-04-09T11:50:47.756Z,20.20
2024-04-09T11:51:47.782Z,20.21
2024-04-09T11:52:47.694Z,20.22
2024-04-09T11:53:47.695Z,20.23
2024-04-09T11:54:47.713Z,20.24
2024-04-09T11:55:47.657Z,20.25
2024-04-09T11:56:47.646Z,20.26
2024-04-09T11:57:47.717Z,20.28
2024-04-09T11:58:47.618Z,20.30
2024-04-09T11:59:47.610Z,20.31
2024-04-09T12:00:47.698Z,20.31
2024-04-09T12:01:47.622Z,20.31
2024-04-09T12:02:47.563Z,20.31
2024-04-09T12:03:47.606Z,20.31
2024-04-09T12:04:47.924Z,20.31
2024-04-09T12:05:47.547Z,20.33
2024-04-09T12:06:47.571Z,20.35
2024-04-09T12:07:47.506Z,20.39
2024-04-09T12:08:47.473Z,20.41
2024-04-09T12:09:47.519Z,20.42
2024-04-09T12:10:47.497Z,20.44
2024-04-09T12:11:47.448Z,20.44
2024-04-09T12:12:47.572Z,20.45
2024-04-09T12:13:47.464Z,20.46
2024-04-09T12:14:47.428Z,20.47
2024-04-09T12:15:47.465Z,20.47
2024-04-09T12:16:47.400Z,20.46
2024-04-09T12:17:47.409Z,20.44
2024-04-09T12:18:47.600Z,20.40
2024-04-09T12:19:47.406Z,20.35
2024-04-09T12:20:47.386Z,20.28
2024-04-09T12:21:47.436Z,20.18
2024-04-09T12:22:47.348Z,20.03
2024-04-09T12:23:47.293Z,19.86
2024-04-09T12:24:47.378Z,19.68
2024-04-09T12:25:47.312Z,19.50
2024-04-09T12:26:47.260Z,19.32
2024-04-09T12:27:47.305Z,19.14
2024-04-09T12:28:47.226Z,18.98
2024-04-09T12:29:47.196Z,18.82
2024-04-09T12:30:47.295Z,18.69
2024-04-09T12:31:47.191Z,18.56
2024-04-09T12:32:47.323Z,18.43
2024-04-09T12:33:47.302Z,18.32
2024-04-09T12:34:47.459Z,18.23
2024-04-09T12:35:47.127Z,18.16
2024-04-09T12:36:47.216Z,18.10
2024-04-09T12:37:47.110Z,18.05
2024-04-09T12:38:47.131Z,18.02
2024-04-09T12:39:47.150Z,17.99
2024-04-09T12:40:47.115Z,17.95
2024-04-09T12:41:47.039Z,17.89
2024-04-09T12:42:47.196Z,17.83
2024-04-09T12:43:47.019Z,17.74
2024-04-09T12:44:47.034Z,17.64
2024-04-09T12:45:47.252Z,17.52
2024-04-09T12:46:47.055Z,17.42
2024-04-09T12:47:47.116Z,17.33
2024-04-09T12:49:01.036Z,17.23
2024-04-09T12:49:47.027Z,17.15
2024-04-09T12:50:46.960Z,17.08
2024-04-09T12:51:47.047Z,17.02
2024-04-09T12:52:46.920Z,16.97